Time,TemperatureF,DewpointF,PressureIn,WindDirection,WindDirectionDegrees,WindSpeedMPH,WindSpeedGustMPH,Humidity,HourlyPrecipIn,Conditions,Clouds,dailyrainin,SolarRadiationWatts/m^2,SoftwareType,DateUTC
2013-02-24 02:00:00,50.0,50.0,-100.00,NNE,20,0.0,-999.0,99,-99.99,,,-99.99,0.000000,,2013-02-24 08:00:00,
2013-02-24 02:54:00,50.0,50.0,-100.00,NNE,20,0.0,-999.0,99,-99.99,,,-99.99,0.000000,,2013-02-24 08:54:00,
2013-02-24 03:00:00,48.0,48.0,-100.00,North,7,0.0,-999.0,99,-99.99,,,-99.99,0.000000,,2013-02-24 09:00:00,
2013-02-24 03:52:00,48.0,48.0,-100.00,North,7,0.0,-999.0,99,-99.99,,,-99.99,0.000000,,2013-02-24 09:52:00,
2013-02-24 04:00:00,47.0,47.0,-100.00,North,10,0.0,-999.0,100,-99.99,,,-99.99,0.000000,,2013-02-24 10:00:00,
2013-02-24 04:52:00,47.0,47.0,-100.00,North,10,0.0,-999.0,100,-99.99,,,-99.99,0.000000,,2013-02-24 10:52:00,
2013-02-24 05:00:00,47.0,47.0,-100.00,North,9,1.0,-999.0,100,-99.99,,,-99.99,0.000000,,2013-02-24 11:00:00,
2013-02-24 05:53:00,47.0,47.0,-100.00,North,9,1.0,-999.0,100,-99.99,,,-99.99,0.000000,,2013-02-24 11:53:00,
2013-02-24 06:57:00,46.0,46.0,-100.00,North,9,1.0,-999.0,100,-99.99,,,-99.99,0.000000,,2013-02-24 12:57:00,
2013-02-24 07:00:00,47.0,47.0,-100.00,NNE,19,1.0,-999.0,100,-99.99,,,-99.99,8.840000,,2013-02-24 13:00:00,
2013-02-24 07:55:00,47.0,47.0,-100.00,NNE,19,1.0,-999.0,100,-99.99,,,-99.99,8.840000,,2013-02-24 13:55:00,
2013-02-24 08:00:00,51.0,51.0,-100.00,NNE,19,1.0,-999.0,98,-99.99,,,-99.99,164.350006,,2013-02-24 14:00:00,
2013-02-24 08:54:00,51.0,51.0,-100.00,NNE,19,1.0,-999.0,98,-99.99,,,-99.99,164.350006,,2013-02-24 14:54:00,
2013-02-24 09:00:00,57.0,51.0,-100.00,NE,47,2.0,-999.0,80,-99.99,,,-99.99,362.989990,,2013-02-24 15:00:00,
2013-02-24 09:53:00,57.0,51.0,-100.00,NE,47,2.0,-999.0,80,-99.99,,,-99.99,362.989990,,2013-02-24 15:53:00,
2013-02-24 10:00:00,61.0,53.0,-100.00,NE,55,3.0,-999.0,77,-99.99,,,-99.99,515.760010,,2013-02-24 16:00:00,
2013-02-24 10:52:00,61.0,53.0,-100.00,NE,55,3.0,-999.0,77,-99.99,,,-99.99,515.760010,,2013-02-24 16:52:00,
2013-02-24 11:00:00,64.0,54.0,-100.00,ENE,75,3.0,-999.0,70,-99.99,,,-99.99,637.450012,,2013-02-24 17:00:00,
2013-02-24 11:53:00,64.0,54.0,-100.00,ENE,75,3.0,-999.0,70,-99.99,,,-99.99,637.450012,,2013-02-24 17:53:00,
2013-02-24 12:00:00,65.0,54.0,-100.00,East,83,4.0,-999.0,68,-99.99,,,-99.99,644.390015,,2013-02-24 18:00:00,
2013-02-24 12:52:00,65.0,54.0,-100.00,East,83,4.0,-999.0,68,-99.99,,,-99.99,644.390015,,2013-02-24 18:52:00,
2013-02-24 13:00:00,69.0,56.0,-100.00,East,86,3.0,-999.0,62,-99.99,,,-99.99,652.739990,,2013-02-24 19:00:00,
2013-02-24 13:52:00,69.0,56.0,-100.00,East,86,3.0,-999.0,62,-99.99,,,-99.99,652.739990,,2013-02-24 19:52:00,
2013-02-24 14:00:00,69.0,56.0,-100.00,ESE,102,4.0,-999.0,62,-99.99,,,-99.99,470.440002,,2013-02-24 20:00:00,
2013-02-24 14:52:00,69.0,56.0,-100.00,ESE,102,4.0,-999.0,62,-99.99,,,-99.99,470.440002,,2013-02-24 20:52:00,
2013-02-24 15:00:00,68.0,57.0,-100.00,East,85,2.0,-999.0,69,-99.99,,,-99.99,228.479996,,2013-02-24 21:00:00,
2013-02-24 15:52:00,68.0,57.0,-100.00,East,85,2.0,-999.0,69,-99.99,,,-99.99,228.479996,,2013-02-24 21:52:00,
2013-02-24 16:00:00,67.0,58.0,-100.00,East,87,3.0,-999.0,73,-99.99,,,-99.99,129.580002,,2013-02-24 22:00:00,
2013-02-24 16:52:00,67.0,58.0,-100.00,East,87,3.0,-999.0,73,-99.99,,,-99.99,129.580002,,2013-02-24 22:52:00,
2013-02-24 17:00:00,65.0,57.0,-100.00,East,99,3.0,-999.0,76,-99.99,,,-99.99,41.400002,,2013-02-24 23:00:00,
2013-02-24 17:52:00,65.0,57.0,-100.00,East,99,3.0,-999.0,76,-99.99,,,-99.99,41.400002,,2013-02-24 23:52:00,
2013-02-24 18:00:00,63.0,57.0,-100.00,East,79,2.0,-999.0,80,-99.99,,,-99.99,9.760000,,2013-02-25 00:00:00,
2013-02-24 18:52:00,63.0,57.0,-100.00,East,79,2.0,-999.0,80,-99.99,,,-99.99,9.760000,,2013-02-25 00:52:00,
2013-02-24 19:00:00,63.0,54.0,-100.00,East,83,2.0,-999.0,72,-99.99,,,-99.99,0.000000,,2013-02-25 01:00:00,
2013-02-24 19:52:00,63.0,54.0,-100.00,East,83,2.0,-999.0,72,-99.99,,,-99.99,0.000000,,2013-02-25 01:52:00,
2013-02-24 20:00:00,62.0,54.0,-100.00,East,79,2.0,-999.0,75,-99.99,,,-99.99,0.000000,,2013-02-25 02:00:00,
2013-02-24 20:52:00,62.0,54.0,-100.00,East,79,2.0,-999.0,75,-99.99,,,-99.99,0.000000,,2013-02-25 02:52:00,
2013-02-24 21:00:00,59.0,57.0,-100.00,ENE,76,2.0,-999.0,95,-99.99,,,-99.99,0.000000,,2013-02-25 03:00:00,
2013-02-24 21:52:00,59.0,57.0,-100.00,ENE,76,2.0,-999.0,95,-99.99,,,-99.99,0.000000,,2013-02-25 03:52:00,
2013-02-24 22:00:00,59.0,59.0,-100.00,ENE,67,3.0,-999.0,97,-99.99,,,-99.99,0.000000,,2013-02-25 04:00:00,
2013-02-24 22:52:00,59.0,59.0,-100.00,ENE,67,3.0,-999.0,97,-99.99,,,-99.99,0.000000,,2013-02-25 04:52:00,